Share

San Ygnacio, TX (78067)

Zapata (KAPY) Elev 423 ft | 26.97 °N, 99.25 °W | Change Station

Current weather conditions updated 17 minutes ago

Overcast
Overcast
72 °F
Feels Like 72 °F
N
13
Wind Variable Wind from ESE
Sunrise 7:09 AM
Sunset 8:04 PM
Moon Waning Gibbous

Tomorrow is forecast to be Warmer than today.

Pressure 30.04 in
Visibility 10.0 miles
Clouds Scattered Clouds 3000 ft
Mostly Cloudy 3400 ft
Overcast 4000 ft
Dew Point 62 °F
Humidity 69%
Rainfall 0.00 in
Snow Depth Not available.
UV 0 out of 16
Pollen 9.80 out of 12
Air Quality Not available.
Flu Activity Local Activity
METAR KAPY 200435Z AUTO 11011KT 10SM SCT030 BKN034 OVC040 22/16 A3004 RMK AO2 T02240164

More Conditions Fewer Conditions

Pressure 30.04 in
Visibility 10.0 miles
Clouds Scattered Clouds 3000 ft
Mostly Cloudy 3400 ft
Overcast 4000 ft
Dew Point 62 °F
Humidity 69%
Rainfall 0.00 in
Snow Depth Not available.
UV 0 out of 16
Pollen 9.80 out of 12
Air Quality Not available.
Flu Activity Local Activity
METAR KAPY 200435Z AUTO 11011KT 10SM SCT030 BKN034 OVC040 22/16 A3004 RMK AO2 T02240164

More Conditions Fewer Conditions

10-Day Weather Forecast

Almanac

Astronomy

Apr. 19, 2014 Rise Set
Actual Time 7:09 AM CDT 8:04 PM CDT
Civil Twilight 6:45 AM CDT 8:28 PM CDT
Nautical Twilight 6:17 AM CDT 8:56 PM CDT
Astronomical Twilight 5:48 AM CDT 9:25 PM CDT
Moon No Moon Rise 10:41 AM CDT (4/19)
Length of Visible Light 13h 42m
Length of Day
12h 54m
Tomorrow will be 1m 29s longer.
Waning Gibbous, 73% of the Moon is Illuminated
Apr 20
Waning Gibbous
Apr 22
Last Quarter
Apr 29
New
May 6
First Quarter
May 14
Full

Yesterday's Extremes

State Highs State Lows

Community

  • Sunny day at the coast-Cape Arago Lighthouse
    Sunny day at the coast-Cape Arago Lighthouse
  • Cherry Blossoms
    Cherry Blossoms
  • White-Crowned Sparrow
    White-Crowned Sparrow
  • New Day
    New Day
  • Happy Easter!
    Happy Easter!

WunderPhotos

Upload Photos

1,703,081 photos uploaded!

WunderBlogs® & News

Nearby

Snow Depth

Station Depth Elevation
No new snow has been reported.

Coastal Water Temperatures

Place Temperature
No Stations Reporting

Earthquake Activity

City Distance Mag. Time & Date
No recent earthquake activity has been reported nearby.
Minimum magnitude displayed is 2.5.

Nearby Weather Stations

There are no personal weather stations in this area.

What do you think?

We're not finished. Please let us know what you like, what you don't like, and what you are still missing.